createdAt,value
2018-12-29T00:00:02.831Z,975.38
2018-12-29T00:01:02.760Z,975.40
2018-12-29T00:02:02.724Z,975.37
2018-12-29T00:03:02.619Z,975.41
2018-12-29T00:04:02.551Z,975.38
2018-12-29T00:05:02.480Z,975.43
2018-12-29T00:06:02.409Z,975.39
2018-12-29T00:07:02.341Z,975.41
2018-12-29T00:08:02.270Z,975.39
2018-12-29T00:09:02.201Z,975.39
2018-12-29T00:10:02.129Z,975.37
2018-12-29T00:11:02.061Z,975.35
2018-12-29T00:12:01.991Z,975.37
2018-12-29T00:13:01.924Z,975.39
2018-12-29T00:14:01.853Z,975.39
2018-12-29T00:15:01.786Z,975.41
2018-12-29T00:16:01.712Z,975.42
2018-12-29T00:17:01.644Z,975.44
2018-12-29T00:18:01.578Z,975.46
2018-12-29T00:19:01.505Z,975.43
2018-12-29T00:20:01.433Z,975.46
2018-12-29T00:21:01.363Z,975.47
2018-12-29T00:22:01.296Z,975.47
2018-12-29T00:23:01.223Z,975.45
2018-12-29T00:24:01.161Z,975.47
2018-12-29T00:25:01.085Z,975.50
2018-12-29T00:26:01.013Z,975.52
2018-12-29T00:27:00.952Z,975.59
2018-12-29T00:28:00.881Z,975.56
2018-12-29T00:29:00.806Z,975.58
2018-12-29T00:30:00.737Z,975.61
2018-12-29T00:31:00.667Z,975.59
2018-12-29T00:32:00.599Z,975.60
2018-12-29T00:33:00.534Z,975.63
2018-12-29T00:34:00.460Z,975.63
2018-12-29T00:35:00.390Z,975.67
2018-12-29T00:36:00.324Z,975.72
2018-12-29T00:37:00.249Z,975.73
2018-12-29T00:38:00.191Z,975.74
2018-12-29T00:39:00.111Z,975.78
2018-12-29T00:40:00.087Z,975.76
2018-12-29T00:40:59.971Z,975.75
2018-12-29T00:41:59.906Z,975.78
2018-12-29T00:42:59.832Z,975.77
2018-12-29T00:43:59.763Z,975.82
2018-12-29T00:45:02.641Z,975.83
2018-12-29T00:45:59.630Z,975.87
2018-12-29T00:46:59.555Z,975.85
2018-12-29T00:47:59.485Z,975.88
2018-12-29T00:48:59.416Z,975.86
2018-12-29T00:49:59.353Z,975.85
2018-12-29T00:50:59.275Z,975.86
2018-12-29T00:51:59.205Z,975.90
2018-12-29T00:52:59.136Z,975.93
2018-12-29T00:53:59.067Z,975.94
2018-12-29T00:54:58.997Z,975.96
2018-12-29T00:55:58.925Z,975.97
2018-12-29T00:56:58.862Z,975.96
2018-12-29T00:57:58.793Z,975.94
2018-12-29T00:58:58.718Z,975.94
2018-12-29T00:59:58.649Z,975.92
2018-12-29T01:00:58.580Z,975.89
2018-12-29T01:01:58.506Z,975.95
2018-12-29T01:02:58.441Z,975.91
2018-12-29T01:03:58.370Z,975.91
2018-12-29T01:04:58.299Z,975.88
2018-12-29T01:05:58.237Z,975.89
2018-12-29T01:06:58.168Z,975.90
2018-12-29T01:07:58.102Z,975.92
2018-12-29T01:08:58.020Z,975.91
2018-12-29T01:09:57.951Z,975.92
2018-12-29T01:10:57.891Z,975.96
2018-12-29T01:11:57.810Z,975.93
2018-12-29T01:12:57.740Z,975.89
2018-12-29T01:13:57.672Z,975.92
2018-12-29T01:14:57.601Z,975.95
2018-12-29T01:15:57.532Z,975.92
2018-12-29T01:16:57.463Z,975.94
2018-12-29T01:17:57.391Z,975.94
2018-12-29T01:18:57.319Z,975.98
2018-12-29T01:19:57.249Z,975.92
2018-12-29T01:20:57.183Z,975.93
2018-12-29T01:21:57.115Z,975.91
2018-12-29T01:22:57.042Z,975.87
2018-12-29T01:23:56.972Z,975.86
2018-12-29T01:24:56.910Z,975.89
2018-12-29T01:25:56.840Z,975.84
2018-12-29T01:26:56.763Z,975.85
2018-12-29T01:27:56.692Z,975.84
2018-12-29T01:28:56.624Z,975.79
2018-12-29T01:29:56.549Z,975.83
2018-12-29T01:30:56.484Z,975.80
2018-12-29T01:31:56.415Z,975.81
2018-12-29T01:32:56.339Z,975.81
2018-12-29T01:33:56.274Z,975.82
2018-12-29T01:34:56.208Z,975.83
2018-12-29T01:35:56.136Z,975.88
2018-12-29T01:36:56.063Z,975.88
2018-12-29T01:37:55.994Z,975.86
2018-12-29T01:38:55.924Z,975.87
2018-12-29T01:39:55.854Z,975.89
2018-12-29T01:40:55.784Z,975.91
2018-12-29T01:41:55.714Z,975.92
2018-12-29T01:42:55.647Z,975.89
2018-12-29T01:43:55.575Z,975.95
2018-12-29T01:44:55.505Z,975.96
2018-12-29T01:45:55.452Z,976.00
2018-12-29T01:46:55.367Z,975.99
2018-12-29T01:47:55.293Z,976.01
2018-12-29T01:48:55.226Z,976.01
2018-12-29T01:49:55.155Z,975.98
2018-12-29T01:50:55.088Z,975.99
2018-12-29T01:51:55.015Z,975.93
2018-12-29T01:52:54.954Z,975.95
2018-12-29T01:53:54.879Z,975.93
2018-12-29T01:54:54.807Z,975.93
2018-12-29T01:55:54.738Z,975.98
2018-12-29T01:56:54.667Z,975.95
2018-12-29T01:57:54.606Z,975.97
2018-12-29T01:58:54.528Z,975.99
2018-12-29T01:59:54.457Z,976.01
2018-12-29T02:00:54.388Z,975.96
2018-12-29T02:01:54.320Z,975.93
2018-12-29T02:02:54.249Z,975.94
2018-12-29T02:03:54.179Z,975.90
2018-12-29T02:04:54.109Z,975.95
2018-12-29T02:05:54.038Z,975.94
2018-12-29T02:06:53.969Z,975.94
2018-12-29T02:07:53.901Z,975.93
2018-12-29T02:08:53.838Z,975.99
2018-12-29T02:09:53.762Z,975.91
2018-12-29T02:10:53.692Z,976.00
2018-12-29T02:11:53.621Z,976.02
2018-12-29T02:12:53.553Z,976.09
2018-12-29T02:13:53.484Z,976.04
2018-12-29T02:14:53.413Z,976.04
2018-12-29T02:15:53.343Z,976.03
2018-12-29T02:16:53.275Z,976.05
2018-12-29T02:17:53.210Z,976.09
2018-12-29T02:18:53.135Z,976.13
2018-12-29T02:19:53.067Z,976.15
2018-12-29T02:20:53.000Z,976.13
2018-12-29T02:21:52.925Z,976.10
2018-12-29T02:22:52.856Z,976.11
2018-12-29T02:23:52.791Z,976.10
2018-12-29T02:24:52.717Z,976.15
2018-12-29T02:25:54.232Z,976.17
2018-12-29T02:26:52.577Z,976.24
2018-12-29T02:27:52.507Z,976.22
2018-12-29T02:28:52.437Z,976.20
2018-12-29T02:29:52.367Z,976.21
2018-12-29T02:30:52.298Z,976.20
2018-12-29T02:31:52.227Z,976.19
2018-12-29T02:32:52.158Z,976.18
2018-12-29T02:33:52.094Z,976.18
2018-12-29T02:34:52.021Z,976.15
2018-12-29T02:35:51.950Z,976.18
2018-12-29T02:36:51.879Z,976.18
2018-12-29T02:37:51.811Z,976.19
2018-12-29T02:38:51.740Z,976.19
2018-12-29T02:39:51.667Z,976.21
2018-12-29T02:40:51.597Z,976.20
2018-12-29T02:41:51.534Z,976.19
2018-12-29T02:42:51.461Z,976.18
2018-12-29T02:43:51.392Z,976.15
2018-12-29T02:44:51.320Z,976.08
2018-12-29T02:45:51.252Z,976.06
2018-12-29T02:46:51.189Z,976.07
2018-12-29T02:47:51.112Z,976.12
2018-12-29T02:48:51.045Z,976.12
2018-12-29T02:49:50.970Z,976.10
2018-12-29T02:50:50.902Z,976.07
2018-12-29T02:51:50.831Z,976.10
2018-12-29T02:52:50.763Z,976.14
2018-12-29T02:53:50.702Z,976.15
2018-12-29T02:54:50.623Z,976.15
2018-12-29T02:55:50.554Z,976.10
2018-12-29T02:56:50.484Z,976.06
2018-12-29T02:57:50.413Z,976.00
2018-12-29T02:58:50.344Z,975.94
2018-12-29T02:59:50.274Z,975.93
2018-12-29T03:00:50.206Z,975.92
2018-12-29T03:01:50.140Z,975.91
2018-12-29T03:02:50.064Z,975.97
2018-12-29T03:03:49.996Z,976.00
2018-12-29T03:04:49.924Z,975.99
2018-12-29T03:05:49.855Z,975.95
2018-12-29T03:06:49.786Z,975.93
2018-12-29T03:07:49.716Z,975.77
2018-12-29T03:08:49.647Z,975.72
2018-12-29T03:09:49.584Z,975.71
2018-12-29T03:10:49.521Z,975.70
2018-12-29T03:11:49.437Z,975.77
2018-12-29T03:12:49.374Z,975.78
2018-12-29T03:13:49.304Z,975.79
2018-12-29T03:14:49.228Z,975.78
2018-12-29T03:15:49.157Z,975.76
2018-12-29T03:16:49.095Z,975.80
2018-12-29T03:17:49.018Z,975.83
2018-12-29T03:18:48.948Z,975.80
2018-12-29T03:19:48.880Z,975.80
2018-12-29T03:20:48.828Z,975.80
2018-12-29T03:21:48.740Z,975.74
2018-12-29T03:22:48.670Z,975.79
2018-12-29T03:23:48.600Z,975.82
2018-12-29T03:24:48.530Z,975.81
2018-12-29T03:25:48.457Z,975.82
2018-12-29T03:26:48.401Z,975.81
2018-12-29T03:27:48.321Z,975.82
2018-12-29T03:28:48.251Z,975.81
2018-12-29T03:29:48.181Z,975.77
2018-12-29T03:30:48.113Z,975.72
2018-12-29T03:31:48.048Z,975.72
2018-12-29T03:32:47.974Z,975.70
2018-12-29T03:33:47.900Z,975.66
2018-12-29T03:34:47.832Z,975.62
2018-12-29T03:35:47.761Z,975.64
2018-12-29T03:36:47.692Z,975.71
2018-12-29T03:37:47.621Z,975.77
2018-12-29T03:38:47.553Z,975.75
2018-12-29T03:39:47.482Z,975.73
2018-12-29T03:40:47.412Z,975.71
2018-12-29T03:41:47.354Z,975.73
2018-12-29T03:42:47.272Z,975.70
2018-12-29T03:43:47.201Z,975.69
2018-12-29T03:44:47.134Z,975.68
2018-12-29T03:45:49.281Z,975.62
2018-12-29T03:46:46.991Z,975.60
2018-12-29T03:47:46.943Z,975.56
2018-12-29T03:48:46.853Z,975.57
2018-12-29T03:49:46.783Z,975.57
2018-12-29T03:50:46.714Z,975.53
2018-12-29T03:51:46.649Z,975.54
2018-12-29T03:52:46.578Z,975.56
2018-12-29T03:53:46.509Z,975.52
2018-12-29T03:54:46.434Z,975.46
2018-12-29T03:55:46.366Z,975.45
2018-12-29T03:56:46.293Z,975.43
2018-12-29T03:57:46.226Z,975.48
2018-12-29T03:58:46.158Z,975.49
2018-12-29T03:59:46.085Z,975.46
2018-12-29T04:00:46.013Z,975.45
2018-12-29T04:01:45.945Z,975.51
2018-12-29T04:02:45.875Z,975.50
2018-12-29T04:03:45.805Z,975.57
2018-12-29T04:04:45.751Z,975.51
2018-12-29T04:05:45.672Z,975.49
2018-12-29T04:06:45.596Z,975.55
2018-12-29T04:07:45.524Z,975.61
2018-12-29T04:08:45.462Z,975.62
2018-12-29T04:09:45.387Z,975.60
2018-12-29T04:10:45.316Z,975.58
2018-12-29T04:11:45.246Z,975.59
2018-12-29T04:12:45.181Z,975.51
2018-12-29T04:13:45.104Z,975.52
2018-12-29T04:14:45.038Z,975.50
2018-12-29T04:15:44.967Z,975.49
2018-12-29T04:16:44.899Z,975.52
2018-12-29T04:17:44.828Z,975.50
2018-12-29T04:18:44.757Z,975.46
2018-12-29T04:19:44.689Z,975.49
2018-12-29T04:20:44.622Z,975.51
2018-12-29T04:21:44.548Z,975.48
2018-12-29T04:22:44.479Z,975.51
2018-12-29T04:23:44.410Z,975.55
2018-12-29T04:24:44.340Z,975.53
2018-12-29T04:25:44.271Z,975.58
2018-12-29T04:26:44.203Z,975.65
2018-12-29T04:27:44.130Z,975.73
2018-12-29T04:28:44.058Z,975.81
2018-12-29T04:29:44.015Z,975.78
2018-12-29T04:30:43.920Z,975.75
2018-12-29T04:31:43.849Z,975.72
2018-12-29T04:32:43.781Z,975.79
2018-12-29T04:33:43.711Z,975.83
2018-12-29T04:34:43.641Z,975.89
2018-12-29T04:35:43.570Z,975.89
2018-12-29T04:36:43.501Z,975.90
2018-12-29T04:37:43.433Z,975.90
2018-12-29T04:38:43.363Z,975.89
2018-12-29T04:39:43.304Z,975.94
2018-12-29T04:40:43.222Z,975.94
2018-12-29T04:41:43.160Z,975.95
2018-12-29T04:42:43.083Z,976.02
2018-12-29T04:43:43.014Z,976.09
2018-12-29T04:44:42.941Z,976.12
2018-12-29T04:45:42.875Z,976.13
2018-12-29T04:46:42.805Z,976.19
2018-12-29T04:47:42.734Z,976.24
2018-12-29T04:48:42.663Z,976.30
2018-12-29T04:49:42.594Z,976.39
2018-12-29T04:50:42.525Z,976.41
2018-12-29T04:51:42.458Z,976.45
2018-12-29T04:52:42.384Z,976.45
2018-12-29T04:53:42.316Z,976.54
2018-12-29T04:54:42.244Z,976.52
2018-12-29T04:55:42.176Z,976.55
2018-12-29T04:56:42.105Z,976.51
2018-12-29T04:57:42.037Z,976.48
2018-12-29T04:58:41.965Z,976.51
2018-12-29T04:59:41.895Z,976.57
2018-12-29T05:00:41.826Z,976.61
2018-12-29T05:01:41.755Z,976.57
2018-12-29T05:02:41.685Z,976.57
2018-12-29T05:03:41.617Z,976.56
2018-12-29T05:04:41.546Z,976.57
2018-12-29T05:05:41.475Z,976.55
2018-12-29T05:06:41.407Z,976.48
2018-12-29T05:07:41.336Z,976.44
2018-12-29T05:08:41.270Z,976.40
2018-12-29T05:09:41.196Z,976.37
2018-12-29T05:10:41.126Z,976.34
2018-12-29T05:11:41.061Z,976.36
2018-12-29T05:12:40.986Z,976.35
2018-12-29T05:13:40.917Z,976.27
2018-12-29T05:14:40.848Z,976.27
2018-12-29T05:15:40.777Z,976.25
2018-12-29T05:16:40.706Z,976.24
2018-12-29T05:17:40.637Z,976.15
2018-12-29T05:18:40.567Z,976.20
2018-12-29T05:19:40.498Z,976.26
2018-12-29T05:20:40.430Z,976.29
2018-12-29T05:21:40.353Z,976.29
2018-12-29T05:22:40.287Z,976.21
2018-12-29T05:23:40.219Z,976.26
2018-12-29T05:24:40.146Z,976.25
2018-12-29T05:25:40.079Z,976.26
2018-12-29T05:26:40.009Z,976.28
2018-12-29T05:27:39.939Z,976.26
2018-12-29T05:28:39.867Z,976.26
2018-12-29T05:29:39.810Z,976.24
2018-12-29T05:30:39.729Z,976.23
2018-12-29T05:31:39.659Z,976.21
2018-12-29T05:32:39.588Z,976.22
2018-12-29T05:33:39.518Z,976.17
2018-12-29T05:34:39.449Z,976.28
2018-12-29T05:35:39.377Z,976.25
2018-12-29T05:36:39.307Z,976.25
2018-12-29T05:37:39.243Z,976.25
2018-12-29T05:38:39.169Z,976.27
2018-12-29T05:39:39.098Z,976.30
2018-12-29T05:40:39.028Z,976.28
2018-12-29T05:41:38.959Z,976.27
2018-12-29T05:42:38.889Z,976.24
2018-12-29T05:43:38.819Z,976.22
2018-12-29T05:44:38.749Z,976.22
2018-12-29T05:45:38.678Z,976.22
2018-12-29T05:46:38.610Z,976.27
2018-12-29T05:47:38.541Z,976.26
2018-12-29T05:48:38.471Z,976.17
2018-12-29T05:49:38.404Z,976.22
2018-12-29T05:50:38.329Z,976.27
2018-12-29T05:51:38.260Z,976.29
2018-12-29T05:52:38.189Z,976.24
2018-12-29T05:53:38.134Z,976.33
2018-12-29T05:54:38.049Z,976.32
2018-12-29T05:55:37.987Z,976.32
2018-12-29T05:56:37.910Z,976.31
2018-12-29T05:57:37.847Z,976.29
2018-12-29T05:58:37.772Z,976.28
2018-12-29T05:59:37.695Z,976.25
2018-12-29T06:00:37.629Z,976.24
2018-12-29T06:01:37.560Z,976.18
2018-12-29T06:02:37.491Z,976.20
2018-12-29T06:03:37.418Z,976.19
2018-12-29T06:04:37.352Z,976.19
2018-12-29T06:05:37.283Z,976.21
2018-12-29T06:06:37.214Z,976.21
2018-12-29T06:07:37.140Z,976.23
2018-12-29T06:08:37.074Z,976.25
2018-12-29T06:09:37.002Z,976.27
2018-12-29T06:10:36.935Z,976.27
2018-12-29T06:11:36.861Z,976.25
2018-12-29T06:12:36.791Z,976.30
2018-12-29T06:13:36.722Z,976.33
2018-12-29T06:14:36.651Z,976.40
2018-12-29T06:15:36.583Z,976.41
2018-12-29T06:16:36.508Z,976.48
2018-12-29T06:17:36.442Z,976.48
2018-12-29T06:18:36.374Z,976.50
2018-12-29T06:19:36.298Z,976.44
2018-12-29T06:20:36.231Z,976.50
2018-12-29T06:21:36.160Z,976.49
2018-12-29T06:22:36.112Z,976.53
2018-12-29T06:23:36.018Z,976.53
2018-12-29T06:24:35.952Z,976.55
2018-12-29T06:25:35.880Z,976.56
2018-12-29T06:26:35.811Z,976.56
2018-12-29T06:27:35.740Z,976.64
2018-12-29T06:28:35.679Z,976.63
2018-12-29T06:29:35.602Z,976.67
2018-12-29T06:30:35.531Z,976.68
2018-12-29T06:31:35.461Z,976.67
2018-12-29T06:32:35.391Z,976.71
2018-12-29T06:33:35.322Z,976.72
2018-12-29T06:34:35.258Z,976.78
2018-12-29T06:35:35.180Z,976.75
2018-12-29T06:36:35.110Z,976.76
2018-12-29T06:37:35.041Z,976.70
2018-12-29T06:38:34.968Z,976.69
2018-12-29T06:39:34.903Z,976.68
2018-12-29T06:40:34.831Z,976.71
2018-12-29T06:41:34.762Z,976.71
2018-12-29T06:42:34.693Z,976.67
2018-12-29T06:43:34.622Z,976.68
2018-12-29T06:44:34.550Z,976.74
2018-12-29T06:45:34.482Z,976.74
2018-12-29T06:46:35.093Z,976.76
2018-12-29T06:47:34.340Z,976.77
2018-12-29T06:48:34.273Z,976.82
2018-12-29T06:49:34.204Z,976.81
2018-12-29T06:50:34.131Z,976.80
2018-12-29T06:51:34.061Z,976.76
2018-12-29T06:52:33.992Z,976.73
2018-12-29T06:53:33.922Z,976.71
2018-12-29T06:54:33.854Z,976.70
2018-12-29T06:55:33.780Z,976.67
2018-12-29T06:56:33.713Z,976.68
2018-12-29T06:57:33.644Z,976.67
2018-12-29T06:58:33.576Z,976.70
2018-12-29T06:59:33.502Z,976.73
2018-12-29T07:00:33.432Z,976.77
2018-12-29T07:01:33.360Z,976.78
2018-12-29T07:02:33.295Z,976.83
2018-12-29T07:03:33.221Z,976.83
2018-12-29T07:04:33.154Z,976.79
2018-12-29T07:05:33.083Z,976.77
2018-12-29T07:06:33.014Z,976.78
2018-12-29T07:07:32.944Z,976.83
2018-12-29T07:08:32.873Z,976.85
2018-12-29T07:09:32.803Z,976.83
2018-12-29T07:10:32.735Z,976.75
2018-12-29T07:11:32.664Z,976.72
2018-12-29T07:12:32.593Z,976.68
2018-12-29T07:13:32.524Z,976.69
2018-12-29T07:14:32.456Z,976.67
2018-12-29T07:15:32.386Z,976.69
2018-12-29T07:16:32.315Z,976.73
2018-12-29T07:17:32.246Z,976.75
2018-12-29T07:18:32.172Z,976.78
2018-12-29T07:19:32.106Z,976.84
2018-12-29T07:20:32.037Z,976.88
2018-12-29T07:21:31.968Z,976.90
2018-12-29T07:22:31.897Z,976.92
2018-12-29T07:23:31.829Z,976.92
2018-12-29T07:24:31.762Z,976.96
2018-12-29T07:25:31.714Z,976.95
2018-12-29T07:26:31.620Z,976.92
2018-12-29T07:27:31.544Z,976.92
2018-12-29T07:28:31.480Z,976.94
2018-12-29T07:29:34.863Z,976.89
2018-12-29T07:30:31.341Z,976.92
2018-12-29T07:31:31.275Z,976.94
2018-12-29T07:32:31.203Z,976.95
2018-12-29T07:33:31.132Z,976.89
2018-12-29T07:34:31.063Z,976.95
2018-12-29T07:35:30.990Z,976.99
2018-12-29T07:36:30.923Z,976.97
2018-12-29T07:37:30.853Z,976.95
2018-12-29T07:38:30.784Z,976.98
2018-12-29T07:39:30.709Z,976.99
2018-12-29T07:40:30.643Z,976.98
2018-12-29T07:41:30.575Z,977.04
2018-12-29T07:42:30.505Z,976.99
2018-12-29T07:43:30.437Z,976.92
2018-12-29T07:44:30.367Z,977.02
2018-12-29T07:45:30.298Z,976.99
2018-12-29T07:46:30.226Z,977.02
2018-12-29T07:47:30.155Z,977.05
2018-12-29T07:48:30.088Z,976.94
2018-12-29T07:49:30.019Z,976.92
2018-12-29T07:50:29.953Z,976.90
2018-12-29T07:51:29.879Z,976.93
2018-12-29T07:52:29.812Z,976.93
2018-12-29T07:53:29.742Z,976.94
2018-12-29T07:54:29.676Z,976.94
2018-12-29T07:55:29.605Z,976.98
2018-12-29T07:56:29.533Z,976.95
2018-12-29T07:57:29.463Z,976.98
2018-12-29T07:58:29.394Z,976.98
2018-12-29T07:59:29.325Z,977.04
2018-12-29T08:00:29.255Z,976.98
2018-12-29T08:01:29.186Z,977.02
2018-12-29T08:02:29.118Z,977.02
2018-12-29T08:03:29.044Z,977.03
2018-12-29T08:04:28.981Z,977.01
2018-12-29T08:05:28.909Z,977.03
2018-12-29T08:06:28.841Z,976.99
2018-12-29T08:07:28.769Z,977.03
2018-12-29T08:08:28.700Z,977.00
2018-12-29T08:09:28.634Z,976.99
2018-12-29T08:10:28.562Z,977.04
2018-12-29T08:11:28.491Z,977.05
2018-12-29T08:12:28.422Z,977.05
2018-12-29T08:13:28.353Z,977.08
2018-12-29T08:14:28.283Z,977.06
2018-12-29T08:15:28.217Z,977.12
2018-12-29T08:16:28.147Z,977.10
2018-12-29T08:17:28.075Z,977.11
2018-12-29T08:18:28.007Z,977.15
2018-12-29T08:19:27.936Z,977.13
2018-12-29T08:20:27.867Z,977.13
2018-12-29T08:21:27.801Z,977.13
2018-12-29T08:22:27.727Z,977.17
2018-12-29T08:23:27.660Z,977.18
2018-12-29T08:24:27.596Z,977.23
2018-12-29T08:25:27.530Z,977.19
2018-12-29T08:26:27.451Z,977.16
2018-12-29T08:27:27.382Z,977.18
2018-12-29T08:28:27.315Z,977.16
2018-12-29T08:29:27.244Z,977.14
2018-12-29T08:30:27.173Z,977.19
2018-12-29T08:31:27.104Z,977.23
2018-12-29T08:32:27.038Z,977.21
2018-12-29T08:33:26.965Z,977.24
2018-12-29T08:34:26.899Z,977.25
2018-12-29T08:35:26.828Z,977.30
2018-12-29T08:36:26.759Z,977.26
2018-12-29T08:37:26.691Z,977.28
2018-12-29T08:38:26.621Z,977.29
2018-12-29T08:39:26.552Z,977.31
2018-12-29T08:40:26.482Z,977.34
2018-12-29T08:41:26.413Z,977.33
2018-12-29T08:42:26.345Z,977.38
2018-12-29T08:43:26.274Z,977.36
2018-12-29T08:44:26.206Z,977.39
2018-12-29T08:45:26.138Z,977.41
2018-12-29T08:46:26.069Z,977.37
2018-12-29T08:47:25.999Z,977.35
2018-12-29T08:48:25.928Z,977.31
2018-12-29T08:49:25.856Z,977.31
2018-12-29T08:50:25.793Z,977.31
2018-12-29T08:51:25.724Z,977.31
2018-12-29T08:52:25.654Z,977.32
2018-12-29T08:53:25.582Z,977.33
2018-12-29T08:54:25.515Z,977.33
2018-12-29T08:55:25.446Z,977.35
2018-12-29T08:56:25.376Z,977.34
2018-12-29T08:57:25.339Z,977.32
2018-12-29T08:58:25.238Z,977.33
2018-12-29T08:59:25.169Z,977.33
2018-12-29T09:00:25.108Z,977.31
2018-12-29T09:01:25.030Z,977.33
2018-12-29T09:02:24.961Z,977.34
2018-12-29T09:03:24.893Z,977.31
2018-12-29T09:04:24.825Z,977.33
2018-12-29T09:05:24.770Z,977.32
2018-12-29T09:06:24.686Z,977.38
2018-12-29T09:07:24.616Z,977.42
2018-12-29T09:08:24.564Z,977.42
2018-12-29T09:09:24.477Z,977.47
2018-12-29T09:10:24.408Z,977.51
2018-12-29T09:11:24.341Z,977.53
2018-12-29T09:12:24.270Z,977.56
2018-12-29T09:13:24.198Z,977.55
2018-12-29T09:14:24.134Z,977.55
2018-12-29T09:15:24.063Z,977.60
2018-12-29T09:16:23.999Z,977.59
2018-12-29T09:17:23.929Z,977.60
2018-12-29T09:18:23.857Z,977.58
2018-12-29T09:19:27.167Z,977.59
2018-12-29T09:20:23.718Z,977.60
2018-12-29T09:21:23.653Z,977.62
2018-12-29T09:22:23.579Z,977.65
2018-12-29T09:23:23.516Z,977.65
2018-12-29T09:24:23.443Z,977.67
2018-12-29T09:25:23.378Z,977.68
2018-12-29T09:26:23.307Z,977.71
2018-12-29T09:27:23.237Z,977.67
2018-12-29T09:28:23.166Z,977.70
2018-12-29T09:29:23.097Z,977.70
2018-12-29T09:30:23.031Z,977.66
2018-12-29T09:31:22.962Z,977.70
2018-12-29T09:32:22.892Z,977.71
2018-12-29T09:33:22.822Z,977.71
2018-12-29T09:34:22.795Z,977.78
2018-12-29T09:35:22.693Z,977.79
2018-12-29T09:36:22.617Z,977.75
2018-12-29T09:37:22.547Z,977.78
2018-12-29T09:38:22.476Z,977.77
2018-12-29T09:39:22.409Z,977.77
2018-12-29T09:40:22.342Z,977.79
2018-12-29T09:41:22.271Z,977.80
2018-12-29T09:42:22.203Z,977.77
2018-12-29T09:43:22.133Z,977.80
2018-12-29T09:44:22.064Z,977.78
2018-12-29T09:45:21.996Z,977.78
2018-12-29T09:46:21.928Z,977.78
2018-12-29T09:47:21.860Z,977.76
2018-12-29T09:48:21.789Z,977.80
2018-12-29T09:49:21.721Z,977.79
2018-12-29T09:50:21.653Z,977.79
2018-12-29T09:51:21.583Z,977.77
2018-12-29T09:52:21.520Z,977.79
2018-12-29T09:53:21.448Z,977.78
2018-12-29T09:54:21.383Z,977.75
2018-12-29T09:55:21.310Z,977.73
2018-12-29T09:56:21.240Z,977.72
2018-12-29T09:57:21.173Z,977.70
2018-12-29T09:58:21.110Z,977.68
2018-12-29T09:59:21.031Z,977.68
2018-12-29T10:00:20.965Z,977.74
2018-12-29T10:01:20.894Z,977.72
2018-12-29T10:02:20.827Z,977.73
2018-12-29T10:03:20.753Z,977.77
2018-12-29T10:04:20.689Z,977.79
2018-12-29T10:05:20.619Z,977.82
2018-12-29T10:06:20.549Z,977.79
2018-12-29T10:07:20.479Z,977.78
2018-12-29T10:08:20.413Z,977.81
2018-12-29T10:09:20.344Z,977.75
2018-12-29T10:10:20.274Z,977.78
2018-12-29T10:11:20.221Z,977.73
2018-12-29T10:12:20.138Z,977.72
2018-12-29T10:13:20.067Z,977.72
2018-12-29T10:14:20.005Z,977.74
2018-12-29T10:15:19.936Z,977.71
2018-12-29T10:16:19.862Z,977.72
2018-12-29T10:17:26.782Z,977.74
2018-12-29T10:18:19.723Z,977.74
2018-12-29T10:19:19.670Z,977.69
2018-12-29T10:20:19.592Z,977.70
2018-12-29T10:21:19.513Z,977.72
2018-12-29T10:22:19.450Z,977.68
2018-12-29T10:23:19.380Z,977.70
2018-12-29T10:24:19.313Z,977.69
2018-12-29T10:25:19.246Z,977.65
2018-12-29T10:26:19.172Z,977.65
2018-12-29T10:27:19.104Z,977.69
2018-12-29T10:28:19.038Z,977.66
2018-12-29T10:29:18.966Z,977.66
2018-12-29T10:30:18.898Z,977.64
2018-12-29T10:31:18.832Z,977.67
2018-12-29T10:32:18.763Z,977.68
2018-12-29T10:33:18.695Z,977.67
2018-12-29T10:34:18.622Z,977.71
2018-12-29T10:35:18.559Z,977.74
2018-12-29T10:36:18.489Z,977.76
2018-12-29T10:37:18.419Z,977.73
2018-12-29T10:38:18.353Z,977.72
2018-12-29T10:39:18.283Z,977.76
2018-12-29T10:40:18.219Z,977.75
2018-12-29T10:41:18.146Z,977.74
2018-12-29T10:42:18.080Z,977.69
2018-12-29T10:43:18.008Z,977.70
2018-12-29T10:44:17.946Z,977.70
2018-12-29T10:45:17.874Z,977.74
2018-12-29T10:46:17.803Z,977.74
2018-12-29T10:47:17.735Z,977.75
2018-12-29T10:48:17.668Z,977.73
2018-12-29T10:49:17.595Z,977.73
2018-12-29T10:50:17.529Z,977.72
2018-12-29T10:51:17.460Z,977.70
2018-12-29T10:52:17.392Z,977.71
2018-12-29T10:53:17.321Z,977.74
2018-12-29T10:54:17.255Z,977.71
2018-12-29T10:55:17.186Z,977.70
2018-12-29T10:56:17.118Z,977.71
2018-12-29T10:57:17.044Z,977.68
2018-12-29T10:58:16.982Z,977.67
2018-12-29T10:59:16.921Z,977.66
2018-12-29T11:00:16.845Z,977.69
2018-12-29T11:01:16.779Z,977.70
2018-12-29T11:02:16.713Z,977.70
2018-12-29T11:03:16.641Z,977.66
2018-12-29T11:04:16.620Z,977.66
2018-12-29T11:05:16.504Z,977.61
2018-12-29T11:06:16.433Z,977.57
2018-12-29T11:07:16.366Z,977.52
2018-12-29T11:08:16.296Z,977.45
2018-12-29T11:09:16.228Z,977.41
2018-12-29T11:10:16.160Z,977.36
2018-12-29T11:11:16.088Z,977.35
2018-12-29T11:12:16.036Z,977.32
2018-12-29T11:13:15.957Z,977.36
2018-12-29T11:14:15.889Z,977.37
2018-12-29T11:15:16.641Z,977.39
2018-12-29T11:16:15.750Z,977.41
2018-12-29T11:17:15.683Z,977.42
2018-12-29T11:18:15.622Z,977.37
2018-12-29T11:19:15.546Z,977.40
2018-12-29T11:20:15.475Z,977.44
2018-12-29T11:21:15.409Z,977.41
2018-12-29T11:22:15.340Z,977.44
2018-12-29T11:23:15.271Z,977.42
2018-12-29T11:24:15.205Z,977.42
2018-12-29T11:25:15.137Z,977.41
2018-12-29T11:26:15.066Z,977.40
2018-12-29T11:27:14.995Z,977.36
2018-12-29T11:28:14.931Z,977.39
2018-12-29T11:29:14.864Z,977.36
2018-12-29T11:30:14.795Z,977.34
2018-12-29T11:31:14.722Z,977.31
2018-12-29T11:32:14.659Z,977.30
2018-12-29T11:33:14.591Z,977.32
2018-12-29T11:34:14.523Z,977.34
2018-12-29T11:35:14.454Z,977.34
2018-12-29T11:36:14.385Z,977.30
2018-12-29T11:37:14.317Z,977.25
2018-12-29T11:38:14.252Z,977.25
2018-12-29T11:39:14.181Z,977.24
2018-12-29T11:40:14.114Z,977.22
2018-12-29T11:41:14.043Z,977.22
2018-12-29T11:42:13.980Z,977.23
2018-12-29T11:43:13.908Z,977.22
2018-12-29T11:44:13.842Z,977.24
2018-12-29T11:45:13.780Z,977.26
2018-12-29T11:46:13.707Z,977.25
2018-12-29T11:47:13.640Z,977.28
2018-12-29T11:48:13.576Z,977.24
2018-12-29T11:49:17.982Z,977.24
2018-12-29T11:50:13.434Z,977.28
2018-12-29T11:51:13.365Z,977.30
2018-12-29T11:52:13.300Z,977.31
2018-12-29T11:53:13.234Z,977.26
2018-12-29T11:54:13.168Z,977.25
2018-12-29T11:55:13.094Z,977.25
2018-12-29T11:56:13.023Z,977.24
2018-12-29T11:57:12.955Z,977.19
2018-12-29T11:58:12.893Z,977.20
2018-12-29T11:59:12.835Z,977.19
2018-12-29T12:00:12.756Z,977.23
2018-12-29T12:01:12.689Z,977.21
2018-12-29T12:02:12.636Z,977.20
2018-12-29T12:03:12.552Z,977.22
2018-12-29T12:04:12.485Z,977.25
2018-12-29T12:05:12.416Z,977.24
2018-12-29T12:06:12.349Z,977.29
2018-12-29T12:07:12.282Z,977.23
2018-12-29T12:08:12.217Z,977.19
2018-12-29T12:09:12.147Z,977.21
2018-12-29T12:10:12.089Z,977.17
2018-12-29T12:11:12.009Z,977.21
2018-12-29T12:12:11.945Z,977.20
2018-12-29T12:13:11.947Z,977.17
2018-12-29T12:14:11.826Z,977.14
2018-12-29T12:15:11.742Z,977.16
2018-12-29T12:16:11.671Z,977.15
2018-12-29T12:17:11.603Z,977.09
2018-12-29T12:18:11.537Z,977.10
2018-12-29T12:19:11.466Z,977.08
2018-12-29T12:20:11.401Z,977.09
2018-12-29T12:21:11.332Z,977.04
2018-12-29T12:22:11.261Z,977.01
2018-12-29T12:23:11.194Z,977.04
2018-12-29T12:24:11.130Z,977.02
2018-12-29T12:25:11.062Z,977.04
2018-12-29T12:26:10.996Z,977.01
2018-12-29T12:27:10.927Z,976.98